sensor_id;sensor_type;location;lat;lon;timestamp;P1;durP1;ratioP1;P2;durP2;ratioP2
19434;SDS011;9853;50.848;4.108;2023-03-25T00:00:24;7.30;;;1.20;;
19434;SDS011;9853;50.848;4.108;2023-03-25T00:02:25;5.07;;;0.85;;
19434;SDS011;9853;50.848;4.108;2023-03-25T00:04:29;6.38;;;0.98;;
19434;SDS011;9853;50.848;4.108;2023-03-25T00:06:30;8.07;;;1.20;;
19434;SDS011;9853;50.848;4.108;2023-03-25T00:08:33;4.63;;;1.00;;
19434;SDS011;9853;50.848;4.108;2023-03-25T00:10:34;2.83;;;0.90;;
19434;SDS011;9853;50.848;4.108;2023-03-25T00:12:35;5.25;;;1.17;;
19434;SDS011;9853;50.848;4.108;2023-03-25T00:14:36;5.47;;;0.85;;
19434;SDS011;9853;50.848;4.108;2023-03-25T00:16:38;5.45;;;0.88;;
19434;SDS011;9853;50.848;4.108;2023-03-25T00:18:39;3.95;;;1.27;;
19434;SDS011;9853;50.848;4.108;2023-03-25T00:20:40;5.90;;;1.02;;
19434;SDS011;9853;50.848;4.108;2023-03-25T00:22:41;9.15;;;1.13;;
19434;SDS011;9853;50.848;4.108;2023-03-25T00:24:43;9.63;;;1.63;;
19434;SDS011;9853;50.848;4.108;2023-03-25T00:26:46;3.33;;;0.93;;
19434;SDS011;9853;50.848;4.108;2023-03-25T00:28:47;3.50;;;0.90;;
19434;SDS011;9853;50.848;4.108;2023-03-25T00:30:48;9.55;;;1.33;;
19434;SDS011;9853;50.848;4.108;2023-03-25T00:32:50;7.07;;;0.93;;
19434;SDS011;9853;50.848;4.108;2023-03-25T00:34:51;8.60;;;1.33;;
19434;SDS011;9853;50.848;4.108;2023-03-25T00:36:52;5.07;;;1.05;;
19434;SDS011;9853;50.848;4.108;2023-03-25T00:38:53;8.82;;;1.08;;
19434;SDS011;9853;50.848;4.108;2023-03-25T00:40:54;4.03;;;0.90;;
19434;SDS011;9853;50.848;4.108;2023-03-25T00:42:55;7.55;;;0.90;;
19434;SDS011;9853;50.848;4.108;2023-03-25T00:44:56;8.55;;;1.05;;
19434;SDS011;9853;50.848;4.108;2023-03-25T00:46:57;3.80;;;1.00;;
19434;SDS011;9853;50.848;4.108;2023-03-25T00:48:58;6.83;;;1.07;;
19434;SDS011;9853;50.848;4.108;2023-03-25T00:51:00;8.27;;;1.27;;
19434;SDS011;9853;50.848;4.108;2023-03-25T00:53:06;6.82;;;1.30;;
19434;SDS011;9853;50.848;4.108;2023-03-25T00:55:07;8.55;;;1.27;;
19434;SDS011;9853;50.848;4.108;2023-03-25T00:57:08;4.75;;;0.95;;
19434;SDS011;9853;50.848;4.108;2023-03-25T00:59:09;6.65;;;1.05;;
19434;SDS011;9853;50.848;4.108;2023-03-25T01:01:11;5.15;;;0.98;;
19434;SDS011;9853;50.848;4.108;2023-03-25T01:03:16;3.50;;;0.75;;
19434;SDS011;9853;50.848;4.108;2023-03-25T01:05:19;6.95;;;1.15;;
19434;SDS011;9853;50.848;4.108;2023-03-25T01:07:20;6.82;;;1.10;;
19434;SDS011;9853;50.848;4.108;2023-03-25T01:09:21;8.77;;;1.35;;
19434;SDS011;9853;50.848;4.108;2023-03-25T01:11:23;7.15;;;1.35;;
19434;SDS011;9853;50.848;4.108;2023-03-25T01:13:25;7.88;;;1.27;;
19434;SDS011;9853;50.848;4.108;2023-03-25T01:15:26;8.23;;;1.83;;
19434;SDS011;9853;50.848;4.108;2023-03-25T01:17:27;8.73;;;1.17;;
19434;SDS011;9853;50.848;4.108;2023-03-25T01:19:29;6.70;;;1.38;;
19434;SDS011;9853;50.848;4.108;2023-03-25T01:21:30;6.32;;;1.42;;
19434;SDS011;9853;50.848;4.108;2023-03-25T01:23:35;5.70;;;1.20;;
19434;SDS011;9853;50.848;4.108;2023-03-25T01:25:36;7.25;;;1.08;;
19434;SDS011;9853;50.848;4.108;2023-03-25T01:27:37;10.65;;;1.50;;
19434;SDS011;9853;50.848;4.108;2023-03-25T01:29:38;7.05;;;1.20;;
19434;SDS011;9853;50.848;4.108;2023-03-25T01:31:38;5.70;;;1.30;;
19434;SDS011;9853;50.848;4.108;2023-03-25T01:33:40;13.07;;;1.20;;
19434;SDS011;9853;50.848;4.108;2023-03-25T01:35:41;8.25;;;1.70;;
19434;SDS011;9853;50.848;4.108;2023-03-25T01:37:42;8.43;;;1.58;;
19434;SDS011;9853;50.848;4.108;2023-03-25T01:39:43;9.20;;;1.45;;
19434;SDS011;9853;50.848;4.108;2023-03-25T01:41:46;5.47;;;1.15;;
19434;SDS011;9853;50.848;4.108;2023-03-25T01:45:09;12.75;;;1.58;;
19434;SDS011;9853;50.848;4.108;2023-03-25T01:46:28;11.23;;;1.42;;
19434;SDS011;9853;50.848;4.108;2023-03-25T01:48:35;15.20;;;1.20;;
19434;SDS011;9853;50.848;4.108;2023-03-25T01:50:41;12.03;;;1.73;;
19434;SDS011;9853;50.848;4.108;2023-03-25T01:52:44;6.10;;;1.17;;
19434;SDS011;9853;50.848;4.108;2023-03-25T01:54:51;10.60;;;1.13;;
19434;SDS011;9853;50.848;4.108;2023-03-25T01:56:53;8.07;;;1.37;;
19434;SDS011;9853;50.848;4.108;2023-03-25T01:58:55;6.90;;;1.20;;
19434;SDS011;9853;50.848;4.108;2023-03-25T02:00:58;11.65;;;1.58;;
19434;SDS011;9853;50.848;4.108;2023-03-25T02:03:00;10.87;;;1.47;;
19434;SDS011;9853;50.848;4.108;2023-03-25T02:05:03;9.97;;;1.13;;
19434;SDS011;9853;50.848;4.108;2023-03-25T02:07:10;7.50;;;1.02;;
19434;SDS011;9853;50.848;4.108;2023-03-25T02:09:17;10.25;;;1.63;;
19434;SDS011;9853;50.848;4.108;2023-03-25T02:11:20;17.13;;;1.50;;
19434;SDS011;9853;50.848;4.108;2023-03-25T02:13:21;6.90;;;1.20;;
19434;SDS011;9853;50.848;4.108;2023-03-25T02:15:22;10.38;;;1.40;;
19434;SDS011;9853;50.848;4.108;2023-03-25T02:22:35;7.90;;;1.10;;
19434;SDS011;9853;50.848;4.108;2023-03-25T02:27:26;8.70;;;1.30;;
19434;SDS011;9853;50.848;4.108;2023-03-25T02:34:47;6.78;;;1.20;;
19434;SDS011;9853;50.848;4.108;2023-03-25T02:39:58;11.35;;;1.40;;
19434;SDS011;9853;50.848;4.108;2023-03-25T02:42:15;5.50;;;1.10;;
19434;SDS011;9853;50.848;4.108;2023-03-25T02:46:36;8.27;;;1.33;;
19434;SDS011;9853;50.848;4.108;2023-03-25T02:48:47;9.00;;;1.40;;
19434;SDS011;9853;50.848;4.108;2023-03-25T02:50:55;9.63;;;1.50;;
19434;SDS011;9853;50.848;4.108;2023-03-25T02:52:58;5.82;;;1.20;;
19434;SDS011;9853;50.848;4.108;2023-03-25T02:55:01;9.80;;;2.37;;
19434;SDS011;9853;50.848;4.108;2023-03-25T02:57:04;8.57;;;1.43;;
19434;SDS011;9853;50.848;4.108;2023-03-25T02:59:08;6.20;;;1.00;;
19434;SDS011;9853;50.848;4.108;2023-03-25T03:01:13;10.97;;;1.47;;
19434;SDS011;9853;50.848;4.108;2023-03-25T03:03:14;9.73;;;1.33;;
19434;SDS011;9853;50.848;4.108;2023-03-25T03:05:23;9.70;;;1.30;;
19434;SDS011;9853;50.848;4.108;2023-03-25T03:07:33;7.50;;;1.20;;
19434;SDS011;9853;50.848;4.108;2023-03-25T03:09:42;12.97;;;1.40;;
19434;SDS011;9853;50.848;4.108;2023-03-25T03:11:56;16.47;;;2.10;;
19434;SDS011;9853;50.848;4.108;2023-03-25T03:14:29;9.77;;;1.47;;
19434;SDS011;9853;50.848;4.108;2023-03-25T03:21:38;11.47;;;1.43;;
19434;SDS011;9853;50.848;4.108;2023-03-25T03:26:10;14.10;;;1.87;;
19434;SDS011;9853;50.848;4.108;2023-03-25T03:28:27;14.90;;;1.30;;
19434;SDS011;9853;50.848;4.108;2023-03-25T03:30:46;9.77;;;1.47;;
19434;SDS011;9853;50.848;4.108;2023-03-25T03:33:16;9.20;;;1.60;;
19434;SDS011;9853;50.848;4.108;2023-03-25T03:35:27;13.02;;;1.55;;
19434;SDS011;9853;50.848;4.108;2023-03-25T03:37:34;14.30;;;2.10;;
19434;SDS011;9853;50.848;4.108;2023-03-25T03:39:40;9.13;;;1.83;;
19434;SDS011;9853;50.848;4.108;2023-03-25T03:41:44;22.08;;;2.33;;
19434;SDS011;9853;50.848;4.108;2023-03-25T03:43:51;13.75;;;1.67;;
19434;SDS011;9853;50.848;4.108;2023-03-25T03:46:00;14.87;;;1.87;;
19434;SDS011;9853;50.848;4.108;2023-03-25T03:48:09;11.90;;;2.00;;
19434;SDS011;9853;50.848;4.108;2023-03-25T03:50:15;13.67;;;2.03;;
19434;SDS011;9853;50.848;4.108;2023-03-25T03:53:19;13.37;;;1.63;;
19434;SDS011;9853;50.848;4.108;2023-03-25T03:55:17;10.80;;;1.80;;
19434;SDS011;9853;50.848;4.108;2023-03-25T03:57:29;11.53;;;1.60;;
19434;SDS011;9853;50.848;4.108;2023-03-25T03:59:36;9.30;;;1.73;;
19434;SDS011;9853;50.848;4.108;2023-03-25T04:01:57;12.60;;;1.50;;
19434;SDS011;9853;50.848;4.108;2023-03-25T04:04:04;16.43;;;1.50;;
19434;SDS011;9853;50.848;4.108;2023-03-25T04:06:08;12.17;;;1.57;;
19434;SDS011;9853;50.848;4.108;2023-03-25T04:08:33;11.30;;;1.20;;
19434;SDS011;9853;50.848;4.108;2023-03-25T04:12:51;13.77;;;1.48;;
19434;SDS011;9853;50.848;4.108;2023-03-25T04:14:55;16.33;;;1.83;;
19434;SDS011;9853;50.848;4.108;2023-03-25T04:16:59;12.23;;;1.67;;
19434;SDS011;9853;50.848;4.108;2023-03-25T04:19:00;14.87;;;1.87;;
19434;SDS011;9853;50.848;4.108;2023-03-25T04:21:03;16.33;;;1.73;;
19434;SDS011;9853;50.848;4.108;2023-03-25T04:23:04;13.43;;;1.90;;
19434;SDS011;9853;50.848;4.108;2023-03-25T04:25:05;13.93;;;1.67;;
19434;SDS011;9853;50.848;4.108;2023-03-25T04:27:07;15.43;;;2.00;;
19434;SDS011;9853;50.848;4.108;2023-03-25T04:29:12;10.63;;;1.47;;
19434;SDS011;9853;50.848;4.108;2023-03-25T04:31:14;16.70;;;1.90;;
19434;SDS011;9853;50.848;4.108;2023-03-25T04:33:15;14.23;;;2.00;;
19434;SDS011;9853;50.848;4.108;2023-03-25T04:35:16;13.23;;;1.88;;
19434;SDS011;9853;50.848;4.108;2023-03-25T04:37:18;14.53;;;1.60;;
19434;SDS011;9853;50.848;4.108;2023-03-25T04:39:19;15.17;;;2.00;;
19434;SDS011;9853;50.848;4.108;2023-03-25T04:41:22;12.00;;;2.10;;
19434;SDS011;9853;50.848;4.108;2023-03-25T04:43:23;19.85;;;2.00;;
19434;SDS011;9853;50.848;4.108;2023-03-25T04:45:24;12.03;;;1.90;;
19434;SDS011;9853;50.848;4.108;2023-03-25T04:47:27;11.80;;;1.70;;
19434;SDS011;9853;50.848;4.108;2023-03-25T04:49:28;13.03;;;1.50;;
19434;SDS011;9853;50.848;4.108;2023-03-25T04:51:29;17.08;;;2.20;;
19434;SDS011;9853;50.848;4.108;2023-03-25T04:53:30;9.70;;;1.50;;
19434;SDS011;9853;50.848;4.108;2023-03-25T04:55:30;11.13;;;1.70;;
19434;SDS011;9853;50.848;4.108;2023-03-25T04:57:33;14.57;;;1.90;;
19434;SDS011;9853;50.848;4.108;2023-03-25T04:59:34;12.17;;;1.57;;
19434;SDS011;9853;50.848;4.108;2023-03-25T05:01:38;8.50;;;1.47;;
19434;SDS011;9853;50.848;4.108;2023-03-25T05:03:44;11.67;;;2.27;;
19434;SDS011;9853;50.848;4.108;2023-03-25T05:05:49;8.67;;;1.77;;
19434;SDS011;9853;50.848;4.108;2023-03-25T05:07:51;9.57;;;2.10;;
19434;SDS011;9853;50.848;4.108;2023-03-25T05:09:53;12.17;;;1.73;;
19434;SDS011;9853;50.848;4.108;2023-03-25T05:11:56;8.60;;;1.33;;
19434;SDS011;9853;50.848;4.108;2023-03-25T05:13:56;10.85;;;1.40;;
19434;SDS011;9853;50.848;4.108;2023-03-25T05:15:57;9.70;;;1.50;;
19434;SDS011;9853;50.848;4.108;2023-03-25T05:17:58;14.10;;;2.10;;
19434;SDS011;9853;50.848;4.108;2023-03-25T05:19:59;18.48;;;1.75;;
19434;SDS011;9853;50.848;4.108;2023-03-25T05:22:00;10.90;;;1.23;;
19434;SDS011;9853;50.848;4.108;2023-03-25T05:24:04;10.57;;;1.90;;
19434;SDS011;9853;50.848;4.108;2023-03-25T05:26:07;12.70;;;1.87;;
19434;SDS011;9853;50.848;4.108;2023-03-25T05:28:09;13.77;;;1.77;;
19434;SDS011;9853;50.848;4.108;2023-03-25T05:30:13;10.83;;;1.60;;
19434;SDS011;9853;50.848;4.108;2023-03-25T05:32:15;12.47;;;1.83;;
19434;SDS011;9853;50.848;4.108;2023-03-25T05:34:18;11.47;;;1.90;;
19434;SDS011;9853;50.848;4.108;2023-03-25T05:36:19;14.20;;;2.10;;
19434;SDS011;9853;50.848;4.108;2023-03-25T05:38:20;12.73;;;1.95;;
19434;SDS011;9853;50.848;4.108;2023-03-25T05:40:21;13.47;;;1.73;;
19434;SDS011;9853;50.848;4.108;2023-03-25T05:42:22;12.63;;;1.77;;
19434;SDS011;9853;50.848;4.108;2023-03-25T05:44:23;10.95;;;1.40;;
19434;SDS011;9853;50.848;4.108;2023-03-25T05:46:25;13.57;;;2.13;;
19434;SDS011;9853;50.848;4.108;2023-03-25T05:48:29;13.48;;;1.90;;
19434;SDS011;9853;50.848;4.108;2023-03-25T05:50:32;10.93;;;1.77;;
19434;SDS011;9853;50.848;4.108;2023-03-25T05:52:33;8.43;;;1.87;;
19434;SDS011;9853;50.848;4.108;2023-03-25T05:54:35;13.43;;;2.20;;
19434;SDS011;9853;50.848;4.108;2023-03-25T05:56:41;16.27;;;2.40;;
19434;SDS011;9853;50.848;4.108;2023-03-25T05:58:41;12.23;;;2.38;;
19434;SDS011;9853;50.848;4.108;2023-03-25T06:00:43;15.48;;;1.70;;
19434;SDS011;9853;50.848;4.108;2023-03-25T06:02:46;16.13;;;2.30;;
19434;SDS011;9853;50.848;4.108;2023-03-25T06:04:47;13.88;;;2.03;;
19434;SDS011;9853;50.848;4.108;2023-03-25T06:06:50;13.77;;;2.57;;
19434;SDS011;9853;50.848;4.108;2023-03-25T06:08:50;13.10;;;2.10;;
19434;SDS011;9853;50.848;4.108;2023-03-25T06:10:53;14.37;;;1.50;;
19434;SDS011;9853;50.848;4.108;2023-03-25T06:12:57;14.40;;;2.13;;
19434;SDS011;9853;50.848;4.108;2023-03-25T06:14:58;18.20;;;2.47;;
19434;SDS011;9853;50.848;4.108;2023-03-25T06:16:59;10.20;;;1.67;;
19434;SDS011;9853;50.848;4.108;2023-03-25T06:18:59;15.07;;;2.30;;
19434;SDS011;9853;50.848;4.108;2023-03-25T06:21:00;14.87;;;2.17;;
19434;SDS011;9853;50.848;4.108;2023-03-25T06:23:02;14.10;;;1.90;;
19434;SDS011;9853;50.848;4.108;2023-03-25T06:25:03;9.60;;;1.65;;
19434;SDS011;9853;50.848;4.108;2023-03-25T06:27:04;13.73;;;1.80;;
19434;SDS011;9853;50.848;4.108;2023-03-25T06:29:12;22.30;;;2.40;;
19434;SDS011;9853;50.848;4.108;2023-03-25T06:31:13;15.65;;;1.88;;
19434;SDS011;9853;50.848;4.108;2023-03-25T06:33:19;18.87;;;2.23;;
19434;SDS011;9853;50.848;4.108;2023-03-25T06:35:20;10.63;;;1.63;;
19434;SDS011;9853;50.848;4.108;2023-03-25T06:37:21;16.10;;;1.73;;
19434;SDS011;9853;50.848;4.108;2023-03-25T06:39:26;17.15;;;1.85;;
19434;SDS011;9853;50.848;4.108;2023-03-25T06:41:31;15.13;;;2.17;;
19434;SDS011;9853;50.848;4.108;2023-03-25T06:43:47;16.97;;;2.03;;
19434;SDS011;9853;50.848;4.108;2023-03-25T06:46:08;12.45;;;1.65;;
19434;SDS011;9853;50.848;4.108;2023-03-25T06:48:27;21.85;;;2.15;;
19434;SDS011;9853;50.848;4.108;2023-03-25T06:50:28;15.85;;;1.88;;
19434;SDS011;9853;50.848;4.108;2023-03-25T06:52:28;17.02;;;1.95;;
19434;SDS011;9853;50.848;4.108;2023-03-25T06:54:29;16.23;;;2.20;;
19434;SDS011;9853;50.848;4.108;2023-03-25T06:56:30;16.87;;;2.10;;
19434;SDS011;9853;50.848;4.108;2023-03-25T06:58:30;17.63;;;4.78;;
19434;SDS011;9853;50.848;4.108;2023-03-25T07:00:33;20.35;;;4.20;;
19434;SDS011;9853;50.848;4.108;2023-03-25T07:02:34;17.25;;;2.08;;
19434;SDS011;9853;50.848;4.108;2023-03-25T07:04:35;18.30;;;2.03;;
19434;SDS011;9853;50.848;4.108;2023-03-25T07:06:36;19.55;;;2.00;;
19434;SDS011;9853;50.848;4.108;2023-03-25T07:08:36;18.50;;;2.08;;
19434;SDS011;9853;50.848;4.108;2023-03-25T07:10:37;13.23;;;2.08;;
19434;SDS011;9853;50.848;4.108;2023-03-25T07:12:38;16.25;;;2.42;;
19434;SDS011;9853;50.848;4.108;2023-03-25T07:14:39;16.52;;;1.77;;
19434;SDS011;9853;50.848;4.108;2023-03-25T07:16:40;14.32;;;1.98;;
19434;SDS011;9853;50.848;4.108;2023-03-25T07:18:41;13.45;;;1.83;;
19434;SDS011;9853;50.848;4.108;2023-03-25T07:20:41;26.52;;;2.58;;
19434;SDS011;9853;50.848;4.108;2023-03-25T07:22:42;16.95;;;2.35;;
19434;SDS011;9853;50.848;4.108;2023-03-25T07:24:43;26.65;;;2.75;;
19434;SDS011;9853;50.848;4.108;2023-03-25T07:26:44;20.70;;;2.47;;
19434;SDS011;9853;50.848;4.108;2023-03-25T07:28:46;13.25;;;2.03;;
19434;SDS011;9853;50.848;4.108;2023-03-25T07:30:47;19.77;;;2.30;;
19434;SDS011;9853;50.848;4.108;2023-03-25T07:32:48;23.83;;;4.28;;
19434;SDS011;9853;50.848;4.108;2023-03-25T07:34:49;13.55;;;2.47;;
19434;SDS011;9853;50.848;4.108;2023-03-25T07:36:50;16.70;;;2.00;;
19434;SDS011;9853;50.848;4.108;2023-03-25T07:38:51;18.33;;;2.55;;
19434;SDS011;9853;50.848;4.108;2023-03-25T07:40:52;16.42;;;1.98;;
19434;SDS011;9853;50.848;4.108;2023-03-25T07:42:54;24.98;;;3.13;;
19434;SDS011;9853;50.848;4.108;2023-03-25T07:45:19;23.52;;;6.57;;
19434;SDS011;9853;50.848;4.108;2023-03-25T07:47:20;23.35;;;2.67;;
19434;SDS011;9853;50.848;4.108;2023-03-25T07:49:21;26.23;;;3.63;;
19434;SDS011;9853;50.848;4.108;2023-03-25T07:51:22;15.73;;;2.72;;
19434;SDS011;9853;50.848;4.108;2023-03-25T07:53:23;21.58;;;4.07;;
19434;SDS011;9853;50.848;4.108;2023-03-25T07:55:24;19.60;;;3.20;;
19434;SDS011;9853;50.848;4.108;2023-03-25T07:57:25;16.50;;;2.53;;
19434;SDS011;9853;50.848;4.108;2023-03-25T07:59:25;22.60;;;2.92;;
19434;SDS011;9853;50.848;4.108;2023-03-25T08:01:26;17.35;;;2.65;;
19434;SDS011;9853;50.848;4.108;2023-03-25T08:03:27;20.20;;;3.17;;
19434;SDS011;9853;50.848;4.108;2023-03-25T08:05:28;17.67;;;2.42;;
19434;SDS011;9853;50.848;4.108;2023-03-25T08:07:29;20.70;;;2.92;;
19434;SDS011;9853;50.848;4.108;2023-03-25T08:09:30;24.13;;;3.20;;
19434;SDS011;9853;50.848;4.108;2023-03-25T08:11:31;26.42;;;5.95;;
19434;SDS011;9853;50.848;4.108;2023-03-25T08:13:32;19.33;;;2.80;;
19434;SDS011;9853;50.848;4.108;2023-03-25T08:15:35;21.98;;;3.10;;
19434;SDS011;9853;50.848;4.108;2023-03-25T08:17:40;18.42;;;2.78;;
19434;SDS011;9853;50.848;4.108;2023-03-25T08:19:45;24.40;;;3.78;;
19434;SDS011;9853;50.848;4.108;2023-03-25T08:21:46;22.30;;;3.20;;
19434;SDS011;9853;50.848;4.108;2023-03-25T08:23:47;40.22;;;14.73;;
19434;SDS011;9853;50.848;4.108;2023-03-25T08:25:50;22.80;;;2.72;;
19434;SDS011;9853;50.848;4.108;2023-03-25T08:27:50;67.35;;;35.05;;
19434;SDS011;9853;50.848;4.108;2023-03-25T08:29:51;21.02;;;3.08;;
19434;SDS011;9853;50.848;4.108;2023-03-25T08:31:56;18.70;;;2.63;;
19434;SDS011;9853;50.848;4.108;2023-03-25T08:34:02;19.83;;;2.30;;
19434;SDS011;9853;50.848;4.108;2023-03-25T08:36:11;16.92;;;2.95;;
19434;SDS011;9853;50.848;4.108;2023-03-25T08:38:13;20.13;;;2.45;;
19434;SDS011;9853;50.848;4.108;2023-03-25T08:40:16;25.13;;;2.75;;
19434;SDS011;9853;50.848;4.108;2023-03-25T08:42:17;21.08;;;2.72;;
19434;SDS011;9853;50.848;4.108;2023-03-25T08:44:18;21.42;;;3.20;;
19434;SDS011;9853;50.848;4.108;2023-03-25T08:46:18;23.85;;;3.38;;
19434;SDS011;9853;50.848;4.108;2023-03-25T08:48:28;14.35;;;2.60;;
19434;SDS011;9853;50.848;4.108;2023-03-25T08:50:36;20.67;;;2.53;;
19434;SDS011;9853;50.848;4.108;2023-03-25T08:52:37;21.30;;;3.70;;
19434;SDS011;9853;50.848;4.108;2023-03-25T08:54:38;20.65;;;3.33;;
19434;SDS011;9853;50.848;4.108;2023-03-25T08:56:39;27.13;;;3.30;;
19434;SDS011;9853;50.848;4.108;2023-03-25T08:58:40;21.00;;;3.55;;
19434;SDS011;9853;50.848;4.108;2023-03-25T09:00:48;17.63;;;2.83;;
19434;SDS011;9853;50.848;4.108;2023-03-25T09:02:53;31.88;;;3.20;;
19434;SDS011;9853;50.848;4.108;2023-03-25T09:04:59;21.27;;;3.10;;
19434;SDS011;9853;50.848;4.108;2023-03-25T09:07:00;26.15;;;3.60;;
19434;SDS011;9853;50.848;4.108;2023-03-25T09:09:02;30.67;;;3.10;;
19434;SDS011;9853;50.848;4.108;2023-03-25T09:11:04;24.83;;;2.75;;
19434;SDS011;9853;50.848;4.108;2023-03-25T09:13:11;24.40;;;3.22;;
19434;SDS011;9853;50.848;4.108;2023-03-25T09:15:11;24.10;;;2.67;;
19434;SDS011;9853;50.848;4.108;2023-03-25T09:17:12;21.55;;;3.35;;
19434;SDS011;9853;50.848;4.108;2023-03-25T09:19:16;22.65;;;3.55;;
19434;SDS011;9853;50.848;4.108;2023-03-25T09:21:17;21.73;;;3.15;;
19434;SDS011;9853;50.848;4.108;2023-03-25T09:23:21;20.75;;;2.92;;
19434;SDS011;9853;50.848;4.108;2023-03-25T09:25:22;23.52;;;2.97;;
19434;SDS011;9853;50.848;4.108;2023-03-25T09:27:23;25.75;;;3.30;;
19434;SDS011;9853;50.848;4.108;2023-03-25T09:29:24;22.35;;;2.92;;
19434;SDS011;9853;50.848;4.108;2023-03-25T09:31:26;25.33;;;2.75;;
19434;SDS011;9853;50.848;4.108;2023-03-25T09:33:27;25.98;;;3.55;;
19434;SDS011;9853;50.848;4.108;2023-03-25T09:35:28;29.90;;;3.35;;
19434;SDS011;9853;50.848;4.108;2023-03-25T09:37:28;26.27;;;3.58;;
19434;SDS011;9853;50.848;4.108;2023-03-25T09:39:29;18.25;;;2.50;;
19434;SDS011;9853;50.848;4.108;2023-03-25T09:45:44;25.50;;;2.92;;
19434;SDS011;9853;50.848;4.108;2023-03-25T09:47:50;25.25;;;3.42;;
19434;SDS011;9853;50.848;4.108;2023-03-25T09:50:02;29.58;;;4.40;;
19434;SDS011;9853;50.848;4.108;2023-03-25T09:52:06;20.23;;;2.78;;
19434;SDS011;9853;50.848;4.108;2023-03-25T09:54:19;16.90;;;2.05;;
19434;SDS011;9853;50.848;4.108;2023-03-25T09:56:25;29.70;;;4.20;;
19434;SDS011;9853;50.848;4.108;2023-03-25T10:00:48;18.85;;;3.55;;
19434;SDS011;9853;50.848;4.108;2023-03-25T10:03:13;27.65;;;3.78;;
19434;SDS011;9853;50.848;4.108;2023-03-25T10:10:08;24.38;;;4.40;;
19434;SDS011;9853;50.848;4.108;2023-03-25T10:12:34;26.10;;;3.38;;
19434;SDS011;9853;50.848;4.108;2023-03-25T10:17:16;25.35;;;2.70;;
19434;SDS011;9853;50.848;4.108;2023-03-25T10:19:41;28.38;;;2.95;;
19434;SDS011;9853;50.848;4.108;2023-03-25T10:29:21;22.33;;;2.97;;
19434;SDS011;9853;50.848;4.108;2023-03-25T10:31:33;15.57;;;1.80;;
19434;SDS011;9853;50.848;4.108;2023-03-25T10:33:40;16.30;;;2.67;;
19434;SDS011;9853;50.848;4.108;2023-03-25T10:35:53;27.98;;;3.05;;
19434;SDS011;9853;50.848;4.108;2023-03-25T10:38:11;21.83;;;3.30;;
19434;SDS011;9853;50.848;4.108;2023-03-25T10:40:28;22.05;;;3.72;;
19434;SDS011;9853;50.848;4.108;2023-03-25T10:42:34;19.40;;;3.15;;
19434;SDS011;9853;50.848;4.108;2023-03-25T10:44:41;26.30;;;2.63;;
19434;SDS011;9853;50.848;4.108;2023-03-25T10:46:44;16.98;;;2.90;;
19434;SDS011;9853;50.848;4.108;2023-03-25T10:48:50;16.35;;;2.55;;
19434;SDS011;9853;50.848;4.108;2023-03-25T10:51:00;24.38;;;2.83;;
19434;SDS011;9853;50.848;4.108;2023-03-25T10:53:30;14.55;;;2.58;;
19434;SDS011;9853;50.848;4.108;2023-03-25T10:55:33;13.57;;;2.17;;
19434;SDS011;9853;50.848;4.108;2023-03-25T10:57:36;13.20;;;2.53;;
19434;SDS011;9853;50.848;4.108;2023-03-25T10:59:41;21.38;;;2.88;;
19434;SDS011;9853;50.848;4.108;2023-03-25T11:01:46;27.42;;;3.90;;
19434;SDS011;9853;50.848;4.108;2023-03-25T11:03:51;14.68;;;2.75;;
19434;SDS011;9853;50.848;4.108;2023-03-25T11:05:55;18.88;;;2.55;;
19434;SDS011;9853;50.848;4.108;2023-03-25T11:07:57;18.42;;;2.67;;
19434;SDS011;9853;50.848;4.108;2023-03-25T11:10:23;18.80;;;2.97;;
19434;SDS011;9853;50.848;4.108;2023-03-25T11:12:25;23.73;;;2.92;;
19434;SDS011;9853;50.848;4.108;2023-03-25T11:14:27;23.63;;;1.77;;
19434;SDS011;9853;50.848;4.108;2023-03-25T11:16:32;23.92;;;3.22;;
19434;SDS011;9853;50.848;4.108;2023-03-25T11:18:38;22.13;;;2.20;;
19434;SDS011;9853;50.848;4.108;2023-03-25T11:20:44;17.88;;;2.40;;
19434;SDS011;9853;50.848;4.108;2023-03-25T11:22:52;18.27;;;2.38;;
19434;SDS011;9853;50.848;4.108;2023-03-25T11:27:26;25.38;;;2.85;;
19434;SDS011;9853;50.848;4.108;2023-03-25T11:29:28;24.20;;;3.38;;
19434;SDS011;9853;50.848;4.108;2023-03-25T11:31:35;21.48;;;2.85;;
19434;SDS011;9853;50.848;4.108;2023-03-25T11:33:37;13.90;;;2.30;;
19434;SDS011;9853;50.848;4.108;2023-03-25T11:35:41;14.23;;;2.67;;
19434;SDS011;9853;50.848;4.108;2023-03-25T11:37:49;16.55;;;2.00;;
19434;SDS011;9853;50.848;4.108;2023-03-25T11:40:00;15.82;;;2.00;;
19434;SDS011;9853;50.848;4.108;2023-03-25T11:44:29;16.02;;;2.15;;
19434;SDS011;9853;50.848;4.108;2023-03-25T11:46:32;17.30;;;2.92;;
19434;SDS011;9853;50.848;4.108;2023-03-25T11:48:35;21.45;;;2.50;;
19434;SDS011;9853;50.848;4.108;2023-03-25T11:50:37;21.63;;;3.13;;
19434;SDS011;9853;50.848;4.108;2023-03-25T11:52:45;13.88;;;1.98;;
19434;SDS011;9853;50.848;4.108;2023-03-25T13:31:38;14.40;;;1.98;;
19434;SDS011;9853;50.848;4.108;2023-03-25T13:34:48;11.32;;;1.67;;
19434;SDS011;9853;50.848;4.108;2023-03-25T13:40:33;25.58;;;3.05;;
19434;SDS011;9853;50.848;4.108;2023-03-25T14:12:01;27.83;;;3.42;;
19434;SDS011;9853;50.848;4.108;2023-03-25T14:25:27;13.88;;;2.45;;
19434;SDS011;9853;50.848;4.108;2023-03-25T14:27:34;9.90;;;1.95;;
19434;SDS011;9853;50.848;4.108;2023-03-25T14:29:37;13.98;;;1.75;;
19434;SDS011;9853;50.848;4.108;2023-03-25T14:31:40;17.35;;;2.22;;
19434;SDS011;9853;50.848;4.108;2023-03-25T14:36:11;19.90;;;2.70;;
19434;SDS011;9853;50.848;4.108;2023-03-25T14:40:50;21.08;;;2.45;;
19434;SDS011;9853;50.848;4.108;2023-03-25T14:42:56;15.07;;;2.22;;
19434;SDS011;9853;50.848;4.108;2023-03-25T14:47:32;12.75;;;1.83;;
19434;SDS011;9853;50.848;4.108;2023-03-25T14:52:12;9.57;;;2.15;;
19434;SDS011;9853;50.848;4.108;2023-03-25T14:56:21;12.07;;;1.88;;
19434;SDS011;9853;50.848;4.108;2023-03-25T14:58:25;14.02;;;2.53;;
19434;SDS011;9853;50.848;4.108;2023-03-25T15:00:28;19.35;;;2.58;;
19434;SDS011;9853;50.848;4.108;2023-03-25T15:02:33;15.45;;;2.58;;
19434;SDS011;9853;50.848;4.108;2023-03-25T15:04:35;13.35;;;2.03;;
19434;SDS011;9853;50.848;4.108;2023-03-25T15:06:36;15.23;;;2.45;;
19434;SDS011;9853;50.848;4.108;2023-03-25T15:08:38;14.25;;;2.50;;
19434;SDS011;9853;50.848;4.108;2023-03-25T15:10:42;18.73;;;2.65;;
19434;SDS011;9853;50.848;4.108;2023-03-25T15:12:49;18.33;;;2.40;;
19434;SDS011;9853;50.848;4.108;2023-03-25T15:14:55;20.80;;;2.83;;
19434;SDS011;9853;50.848;4.108;2023-03-25T15:17:07;17.90;;;2.30;;
19434;SDS011;9853;50.848;4.108;2023-03-25T15:19:11;17.08;;;2.60;;
19434;SDS011;9853;50.848;4.108;2023-03-25T15:21:13;16.50;;;3.08;;
19434;SDS011;9853;50.848;4.108;2023-03-25T15:25:17;23.60;;;3.03;;
19434;SDS011;9853;50.848;4.108;2023-03-25T15:27:28;19.15;;;2.95;;
19434;SDS011;9853;50.848;4.108;2023-03-25T15:41:48;21.70;;;3.10;;
19434;SDS011;9853;50.848;4.108;2023-03-25T15:53:55;22.95;;;2.50;;
19434;SDS011;9853;50.848;4.108;2023-03-25T15:56:12;23.23;;;3.80;;
19434;SDS011;9853;50.848;4.108;2023-03-25T15:58:21;15.98;;;2.67;;
19434;SDS011;9853;50.848;4.108;2023-03-25T16:00:33;24.58;;;2.80;;
19434;SDS011;9853;50.848;4.108;2023-03-25T16:02:41;25.25;;;3.47;;
19434;SDS011;9853;50.848;4.108;2023-03-25T16:04:48;15.60;;;2.72;;
19434;SDS011;9853;50.848;4.108;2023-03-25T16:06:51;20.17;;;2.80;;
19434;SDS011;9853;50.848;4.108;2023-03-25T16:08:55;20.27;;;2.83;;
19434;SDS011;9853;50.848;4.108;2023-03-25T16:13:21;23.95;;;3.30;;
19434;SDS011;9853;50.848;4.108;2023-03-25T16:15:26;28.33;;;3.30;;
19434;SDS011;9853;50.848;4.108;2023-03-25T16:17:30;16.83;;;3.00;;
19434;SDS011;9853;50.848;4.108;2023-03-25T16:19:38;24.02;;;2.67;;
19434;SDS011;9853;50.848;4.108;2023-03-25T16:21:47;23.00;;;3.58;;
19434;SDS011;9853;50.848;4.108;2023-03-25T16:23:52;24.48;;;3.22;;
19434;SDS011;9853;50.848;4.108;2023-03-25T16:25:55;26.83;;;3.80;;
19434;SDS011;9853;50.848;4.108;2023-03-25T16:27:56;29.42;;;3.42;;